Anvik Airport
PANV : rendu visible

Aérodrome :











RETROUVEZ-NOUS SUR...

 
LOGIN :

S'inscrire | Disclaimer

   EN    FR    IT 

 









Légende :    VFR   VFR Marginal   IFR   IFR Intensif   IFR Très Intensif
Visi : 
Plafond : 
>= 8 km
>= 3000ft
5 à 8 km
1000 à 3000 ft
1500m à 5 km
500 à 1000 ft
800 à 1500m
200 à 500 ft
< 800m
< 200 ft
Symboles :   Orages  Brouillard  Fortes neiges  Fortes précipitations  Vent > 20 kt






- Altitude de l'aérodrome : 291 ft
- Code IATA : ANV


PANV - Anvik

DERNIER METAR :
  • 271356Z AUTO 03011KT 10SM CLR 04/02 A2938 RMK AO2 SLP013 T00390017 TSNO

METARs EXPIRÉS :
  • 271256Z AUTO 03010KT 10SM BKN034 BKN044 04/01 A2940 RMK AO2 SLP020 T00390011 TSNO
  • 271156Z AUTO 03010G14KT 10SM OVC032 04/01 A2941 RMK AO2 SLP028 60004 70004 T00440011 10044 20033 56011 TSNO

TAF N/A
FIR PAZA / Amérique du Nord



MET'MAP, la Météo Aéronautique d'un coup d'oeil ! - Copyright ORBIFLY Décembre 2007 - Disclaimer

ORBIFLY MET'MAP TEAM :

Programmation & Développement : Alexandra Zaïnal
Sur une idée originale de : Baudouin d'Aumeries
Assistance à la programmation : Marc-Olivier Méhu
Soutien technique & logistique : Manuel Goepfert

Contact : metmap@orbifly.com




SOURCES & CREDITS :

   NOAA       Earth
Advisory